Time;durP1;ratioP1;P1;durP2;ratioP2;P2;SDS_P1;SDS_P2;PMS_P1;PMS_P2;Temp;Humidity;BMP_temperature;BMP_pressure;BME280_temperature;BME280_humidity;BME280_pressure;Samples;Min_cycle;Max_cycle;Signal;HPM_P1;HPM_P2
2023/04/20 00:04:28;;;;;;;;;;;;;;;4.40;83.22;101936.75;10367898;28;20274;-78
2023/04/20 00:09:29;;;;;;;;;;;;;;;4.35;85.47;101933.72;10400053;28;19924;-78
2023/04/20 00:14:29;;;;;;;;;;;;;;;4.46;84.71;101928.59;10406015;28;19917;-78
2023/04/20 00:19:32;;;;;;;;;;;;;;;4.46;83.78;101920.81;10368145;28;19925;-78
2023/04/20 00:24:32;;;;;;;;;;;;;;;4.48;80.70;101907.25;10382995;28;19921;-78
2023/04/20 00:29:32;;;;;;;;;;;;;;;4.42;81.36;101904.09;10376952;28;19916;-77
2023/04/20 00:34:33;;;;;;;;;;;;;;;4.33;84.97;101898.09;10406524;28;19935;-78
2023/04/20 00:39:33;;;;;;;;;;;;;;;4.12;87.52;101887.63;10366696;28;19933;-78
2023/04/20 00:44:34;;;;;;;;;;;;;;;3.97;90.01;101879.38;10391022;28;19963;-78
2023/04/20 00:49:34;;;;;;;;;;;;;;;3.85;89.61;101884.34;10365745;28;19940;-78
2023/04/20 00:54:35;;;;;;;;;;;;;;;3.78;90.61;101875.09;10377876;28;19922;-78
2023/04/20 00:59:35;;;;;;;;;;;;;;;3.57;95.93;101860.19;10374176;28;19921;-78
2023/04/20 01:04:35;;;;;;;;;;;;;;;3.39;99.40;101855.13;10389019;28;19917;-78
2023/04/20 01:09:39;;;;;;;;;;;;;;;3.21;100.00;101842.31;10381138;28;19928;-78
2023/04/20 01:14:39;;;;;;;;;;;;;;;3.25;100.00;101833.19;10392433;28;19917;-78
2023/04/20 01:19:40;;;;;;;;;;;;;;;3.45;100.00;101829.81;10363703;28;20289;-78
2023/04/20 01:24:41;;;;;;;;;;;;;;;3.97;96.32;101815.53;10367580;28;19990;-78
2023/04/20 01:29:41;;;;;;;;;;;;;;;4.41;87.12;101809.84;10368122;28;19932;-78
2023/04/20 01:34:42;;;;;;;;;;;;;;;4.53;84.10;101804.84;10398789;28;19932;-78
2023/04/20 01:39:44;;;;;;;;;;;;;;;4.54;81.51;101793.72;10365663;28;19925;-78
2023/04/20 01:44:44;;;;;;;;;;;;;;;4.55;81.77;101773.84;10403551;28;19938;-78
2023/04/20 01:49:45;;;;;;;;;;;;;;;4.51;84.70;101772.69;10366229;28;19921;-78
2023/04/20 01:54:45;;;;;;;;;;;;;;;4.53;84.18;101759.84;10323463;28;19925;-78
2023/04/20 01:59:45;;;;;;;;;;;;;;;4.61;81.75;101760.53;10375733;28;19979;-78
2023/04/20 02:04:46;;;;;;;;;;;;;;;4.66;79.85;101754.94;10392344;28;19967;-78
2023/04/20 02:09:46;;;;;;;;;;;;;;;4.64;79.53;101751.31;10337600;28;19949;-78
2023/04/20 02:14:46;;;;;;;;;;;;;;;4.63;79.28;101754.69;10322217;28;19918;-78
2023/04/20 02:19:46;;;;;;;;;;;;;;;4.60;78.74;101744.03;10395947;28;19928;-78
2023/04/20 02:24:47;;;;;;;;;;;;;;;4.58;78.25;101749.91;10378377;28;20377;-78
2023/04/20 02:29:47;;;;;;;;;;;;;;;4.49;80.73;101748.31;10362427;28;19925;-78
2023/04/20 02:34:48;;;;;;;;;;;;;;;4.49;80.88;101744.81;10374904;28;19928;-78
2023/04/20 02:39:48;;;;;;;;;;;;;;;4.56;82.51;101734.19;10376503;28;19928;-78
2023/04/20 02:44:48;;;;;;;;;;;;;;;4.67;84.58;101727.34;10400275;28;19921;-78
2023/04/20 02:49:49;;;;;;;;;;;;;;;4.73;81.36;101724.34;10362836;28;19921;-78
2023/04/20 02:54:49;;;;;;;;;;;;;;;4.75;83.76;101707.22;10396222;28;19917;-78
2023/04/20 02:59:50;;;;;;;;;;;;;;;4.76;79.47;101698.69;10399637;28;19921;-78
2023/04/20 03:04:50;;;;;;;;;;;;;;;4.76;80.16;101704.78;10399792;28;20284;-78
2023/04/20 03:09:51;;;;;;;;;;;;;;;4.75;81.94;101691.66;10372892;28;19925;-78
2023/04/20 03:14:51;;;;;;;;;;;;;;;4.70;85.10;101686.13;10398266;28;19921;-78
2023/04/20 03:19:51;;;;;;;;;;;;;;;4.64;87.91;101675.22;10365546;28;19921;-77
2023/04/20 03:24:52;;;;;;;;;;;;;;;4.62;88.52;101674.19;10336628;28;19918;-77
2023/04/20 03:29:52;;;;;;;;;;;;;;;4.63;89.47;101671.69;10362435;28;19921;-77
2023/04/20 03:34:52;;;;;;;;;;;;;;;4.66;91.59;101679.75;10366342;28;20369;-78
2023/04/20 03:39:53;;;;;;;;;;;;;;;4.67;93.98;101665.09;10380256;28;19922;-78
2023/04/20 03:44:53;;;;;;;;;;;;;;;4.65;97.77;101654.59;10373694;28;21097;-78
2023/04/20 03:49:53;;;;;;;;;;;;;;;4.69;100.00;101656.66;10386689;28;19928;-78
2023/04/20 03:54:54;;;;;;;;;;;;;;;4.72;100.00;101660.28;10393861;28;19987;-78
2023/04/20 03:59:54;;;;;;;;;;;;;;;4.74;100.00;101669.09;10370567;28;19921;-78
2023/04/20 04:04:55;;;;;;;;;;;;;;;4.75;100.00;101660.56;10372542;28;19921;-78
2023/04/20 04:09:55;;;;;;;;;;;;;;;4.82;100.00;101647.31;10379954;28;20048;-78
2023/04/20 04:14:55;;;;;;;;;;;;;;;4.88;100.00;101640.03;10374526;28;19921;-78
2023/04/20 04:19:56;;;;;;;;;;;;;;;4.93;100.00;101645.63;10365787;28;19925;-78
2023/04/20 04:24:56;;;;;;;;;;;;;;;4.97;100.00;101640.81;10383218;28;20067;-78
2023/04/20 04:29:56;;;;;;;;;;;;;;;5.04;100.00;101628.34;10364114;28;20319;-78
2023/04/20 04:34:59;;;;;;;;;;;;;;;5.12;100.00;101622.09;10349716;28;19933;-78
2023/04/20 04:40:01;;;;;;;;;;;;;;;5.15;100.00;101622.34;10363088;28;19928;-76
2023/04/20 04:45:03;;;;;;;;;;;;;;;4.90;100.00;101625.50;10395626;28;19932;-77
2023/04/20 04:50:04;;;;;;;;;;;;;;;4.63;100.00;101617.25;10373933;28;19928;-78
2023/04/20 04:55:07;;;;;;;;;;;;;;;4.45;100.00;101613.13;10372126;28;19921;-77
2023/04/20 05:00:10;;;;;;;;;;;;;;;4.36;100.00;101611.56;10389537;28;19928;-77
2023/04/20 05:05:10;;;;;;;;;;;;;;;4.35;100.00;101609.75;10371751;28;20589;-77
2023/04/20 05:10:11;;;;;;;;;;;;;;;4.42;100.00;101613.78;10367798;28;19921;-78
2023/04/20 05:15:11;;;;;;;;;;;;;;;4.45;100.00;101613.13;10377684;28;19991;-78
2023/04/20 05:20:12;;;;;;;;;;;;;;;4.47;100.00;101614.16;10337871;28;19929;-78
2023/04/20 05:25:13;;;;;;;;;;;;;;;4.55;100.00;101611.44;10359477;28;19929;-78
2023/04/20 05:30:13;;;;;;;;;;;;;;;4.59;100.00;101622.97;10361427;28;19925;-77
2023/04/20 05:35:13;;;;;;;;;;;;;;;4.60;100.00;101611.81;10379215;28;19928;-78
2023/04/20 05:40:14;;;;;;;;;;;;;;;4.67;100.00;101615.84;10399467;28;19928;-78
2023/04/20 05:45:14;;;;;;;;;;;;;;;4.73;100.00;101615.44;10371351;28;20273;-78
2023/04/20 05:50:15;;;;;;;;;;;;;;;4.79;100.00;101618.53;10362553;28;19929;-78
2023/04/20 05:55:15;;;;;;;;;;;;;;;4.85;100.00;101624.22;10359720;28;20292;-78
2023/04/20 06:00:16;;;;;;;;;;;;;;;4.98;100.00;101619.28;10360219;28;19921;-78
2023/04/20 06:05:16;;;;;;;;;;;;;;;5.18;100.00;101612.22;10384114;28;19949;-78
2023/04/20 06:10:16;;;;;;;;;;;;;;;5.33;100.00;101597.00;10374410;28;20490;-78
2023/04/20 06:15:16;;;;;;;;;;;;;;;5.55;100.00;101606.50;10387554;28;19925;-78
2023/04/20 06:20:18;;;;;;;;;;;;;;;5.81;100.00;101599.88;10374450;28;20293;-77
2023/04/20 06:25:18;;;;;;;;;;;;;;;6.07;100.00;101588.03;10344075;28;19927;-77
2023/04/20 06:30:19;;;;;;;;;;;;;;;6.16;100.00;101581.84;10358825;28;19936;-77
2023/04/20 06:35:20;;;;;;;;;;;;;;;6.30;100.00;101577.72;10368636;28;19921;-77
2023/04/20 06:40:20;;;;;;;;;;;;;;;6.41;100.00;101575.03;10346977;28;19922;-77
2023/04/20 06:45:20;;;;;;;;;;;;;;;6.45;100.00;101570.16;10318336;28;19929;-76
2023/04/20 06:50:21;;;;;;;;;;;;;;;6.53;100.00;101569.81;10346131;28;19964;-78
2023/04/20 06:55:21;;;;;;;;;;;;;;;6.75;100.00;101567.16;10372293;28;20300;-79
2023/04/20 07:00:21;;;;;;;;;;;;;;;6.93;100.00;101566.69;10368544;28;19928;-78
2023/04/20 07:05:22;;;;;;;;;;;;;;;7.13;100.00;101557.72;10364095;28;19921;-77
2023/04/20 07:10:22;;;;;;;;;;;;;;;7.23;100.00;101575.84;10362464;28;19939;-77
2023/04/20 07:15:23;;;;;;;;;;;;;;;7.37;100.00;101563.81;10355520;28;20442;-76
2023/04/20 07:20:23;;;;;;;;;;;;;;;7.78;100.00;101568.47;10365684;28;19925;-77
2023/04/20 07:25:24;;;;;;;;;;;;;;;7.85;100.00;101556.75;10364080;28;19928;-77
2023/04/20 07:30:24;;;;;;;;;;;;;;;7.69;100.00;101556.47;10396517;28;19927;-77
2023/04/20 07:35:25;;;;;;;;;;;;;;;7.75;100.00;101559.50;10383980;28;19921;-77
2023/04/20 07:40:25;;;;;;;;;;;;;;;7.64;100.00;101564.88;10345738;28;19922;-76
2023/04/20 07:45:29;;;;;;;;;;;;;;;7.48;100.00;101562.88;10381915;28;20295;-76
2023/04/20 07:50:29;;;;;;;;;;;;;;;7.34;100.00;101561.00;10358326;28;19923;-77
2023/04/20 07:55:29;;;;;;;;;;;;;;;7.30;100.00;101561.56;10365123;28;20004;-76
2023/04/20 08:00:30;;;;;;;;;;;;;;;7.31;100.00;101563.38;10327526;28;20008;-77
2023/04/20 08:05:30;;;;;;;;;;;;;;;7.49;100.00;101564.69;10332189;28;19985;-76
2023/04/20 08:10:31;;;;;;;;;;;;;;;7.56;100.00;101563.41;10325056;28;20080;-77
2023/04/20 08:15:31;;;;;;;;;;;;;;;7.44;100.00;101559.94;10352734;28;19930;-76
2023/04/20 08:20:32;;;;;;;;;;;;;;;7.30;100.00;101551.16;10346650;28;19918;-77
2023/04/20 08:25:33;;;;;;;;;;;;;;;7.14;100.00;101547.44;10340327;28;19964;-77
2023/04/20 08:30:33;;;;;;;;;;;;;;;7.05;100.00;101550.28;10383512;28;20379;-76
2023/04/20 08:35:33;;;;;;;;;;;;;;;6.89;100.00;101545.66;10368554;28;20293;-76
2023/04/20 08:40:34;;;;;;;;;;;;;;;6.84;100.00;101538.28;10360269;28;19928;-76
2023/04/20 08:45:35;;;;;;;;;;;;;;;6.89;100.00;101536.94;10379583;28;20341;-76
2023/04/20 08:50:36;;;;;;;;;;;;;;;7.25;100.00;101537.78;10401036;28;20004;-77
2023/04/20 08:55:36;;;;;;;;;;;;;;;7.34;100.00;101542.78;10401121;28;20012;-76
2023/04/20 09:00:44;;;;;;;;;;;;;;;7.52;100.00;101537.94;10368389;28;19921;-77
2023/04/20 09:05:45;;;;;;;;;;;;;;;7.79;100.00;101527.66;10390095;28;20360;-77
2023/04/20 09:10:45;;;;;;;;;;;;;;;7.82;100.00;101521.78;10404387;28;19917;-78
2023/04/20 09:15:46;;;;;;;;;;;;;;;8.25;100.00;101529.91;10386447;28;19929;-77
2023/04/20 09:20:46;;;;;;;;;;;;;;;8.49;100.00;101517.63;10391693;28;19921;-76
2023/04/20 09:25:49;;;;;;;;;;;;;;;8.18;100.00;101527.69;10378725;28;19979;-74
2023/04/20 09:30:50;;;;;;;;;;;;;;;8.17;100.00;101523.28;10395579;28;20377;-74
2023/04/20 09:35:50;;;;;;;;;;;;;;;8.02;100.00;101521.44;10372674;28;19929;-76
2023/04/20 09:40:54;;;;;;;;;;;;;;;8.03;100.00;101514.50;10362764;28;19928;-76
2023/04/20 09:45:55;;;;;;;;;;;;;;;7.98;100.00;101519.41;10382636;28;20365;-77
2023/04/20 09:50:55;;;;;;;;;;;;;;;8.00;100.00;101503.88;10344326;28;20008;-77
2023/04/20 09:55:55;;;;;;;;;;;;;;;8.05;100.00;101505.09;10361603;28;20292;-77
2023/04/20 10:00:56;;;;;;;;;;;;;;;8.35;100.00;101490.63;10357214;28;19925;-77
2023/04/20 10:05:56;;;;;;;;;;;;;;;8.83;100.00;101487.66;10373646;28;19963;-77
2023/04/20 10:10:56;;;;;;;;;;;;;;;9.10;100.00;101488.50;10398243;28;19928;-76
2023/04/20 10:15:57;;;;;;;;;;;;;;;8.58;100.00;101496.50;10402134;28;19924;-78
2023/04/20 10:21:05;;;;;;;;;;;;;;;8.63;100.00;101479.44;10396765;28;19924;-77
2023/04/20 10:26:08;;;;;;;;;;;;;;;8.92;100.00;101487.31;10374703;28;19921;-77
2023/04/20 10:31:12;;;;;;;;;;;;;;;8.65;100.00;101474.28;10378110;28;19975;-77
2023/04/20 10:36:20;;;;;;;;;;;;;;;8.26;100.00;101478.66;10400031;28;20019;-77
2023/04/20 10:41:20;;;;;;;;;;;;;;;7.98;100.00;101467.28;10401389;28;19921;-77
2023/04/20 10:46:24;;;;;;;;;;;;;;;7.71;100.00;101458.47;10361135;28;19921;-78
2023/04/20 10:51:24;;;;;;;;;;;;;;;7.48;100.00;101458.69;10399385;28;19917;-78
2023/04/20 10:56:26;;;;;;;;;;;;;;;7.63;100.00;101464.06;10366962;28;20365;-77
2023/04/20 11:01:26;;;;;;;;;;;;;;;7.63;100.00;101489.22;10391031;28;19925;-77
2023/04/20 11:06:27;;;;;;;;;;;;;;;7.42;100.00;101466.09;10385396;28;20387;-77
2023/04/20 11:11:27;;;;;;;;;;;;;;;7.80;100.00;101461.72;10389622;28;19927;-77
2023/04/20 11:16:28;;;;;;;;;;;;;;;8.48;100.00;101455.78;10362463;28;19928;-77
2023/04/20 11:21:37;;;;;;;;;;;;;;;8.99;100.00;101441.63;10377781;28;19928;-77
2023/04/20 11:26:39;;;;;;;;;;;;;;;11.10;100.00;101430.41;10399650;28;19916;-78
2023/04/20 11:31:39;;;;;;;;;;;;;;;14.00;100.00;101414.59;10392702;28;19952;-77
2023/04/20 11:36:40;;;;;;;;;;;;;;;14.32;100.00;101402.75;10352593;28;19967;-76
2023/04/20 11:41:41;;;;;;;;;;;;;;;13.25;99.87;101400.81;10387437;28;19922;-76
2023/04/20 11:46:42;;;;;;;;;;;;;;;13.87;97.04;101406.19;10363174;28;19921;-77
2023/04/20 11:51:43;;;;;;;;;;;;;;;12.30;100.00;101387.63;10360057;28;20460;-76
2023/04/20 11:56:43;;;;;;;;;;;;;;;10.77;100.00;101394.59;10374022;28;19931;-76
2023/04/20 12:01:44;;;;;;;;;;;;;;;9.91;100.00;101391.47;10358296;28;20037;-76
2023/04/20 12:06:44;;;;;;;;;;;;;;;9.72;100.00;101389.50;10391131;28;20371;-77
2023/04/20 12:11:45;;;;;;;;;;;;;;;9.52;100.00;101385.66;10399447;28;19929;-77
2023/04/20 12:16:45;;;;;;;;;;;;;;;9.17;100.00;101387.03;10397485;28;19917;-77
2023/04/20 12:21:46;;;;;;;;;;;;;;;8.60;100.00;101406.16;10381481;28;20566;-77
2023/04/20 12:26:47;;;;;;;;;;;;;;;8.28;100.00;101406.63;10402125;28;19971;-78
2023/04/20 12:31:47;;;;;;;;;;;;;;;8.09;100.00;101405.41;10407233;28;19932;-78
2023/04/20 12:36:47;;;;;;;;;;;;;;;7.98;100.00;101404.72;10406172;28;19921;-77
2023/04/20 12:41:48;;;;;;;;;;;;;;;8.47;100.00;101395.72;10390587;28;19927;-77
2023/04/20 12:46:48;;;;;;;;;;;;;;;8.82;100.00;101400.59;10405991;28;20024;-78
2023/04/20 12:51:48;;;;;;;;;;;;;;;8.02;100.00;101404.13;10405529;28;20016;-77
2023/04/20 12:56:49;;;;;;;;;;;;;;;7.02;100.00;101434.63;10404663;28;20111;-78
2023/04/20 13:01:49;;;;;;;;;;;;;;;6.64;100.00;101436.28;10407086;28;19924;-77
2023/04/20 13:06:50;;;;;;;;;;;;;;;6.66;100.00;101439.88;10403893;28;19921;-77
2023/04/20 13:11:50;;;;;;;;;;;;;;;6.67;100.00;101427.81;10404667;28;19924;-77
2023/04/20 13:16:50;;;;;;;;;;;;;;;7.43;100.00;101414.88;10404173;28;19917;-77
2023/04/20 13:21:51;;;;;;;;;;;;;;;10.00;100.00;101406.81;10405038;28;20016;-77
2023/04/20 13:26:52;;;;;;;;;;;;;;;12.44;100.00;101386.59;10404750;28;20357;-76
2023/04/20 13:31:52;;;;;;;;;;;;;;;14.24;100.00;101375.22;10402393;28;19923;-77
2023/04/20 13:36:52;;;;;;;;;;;;;;;13.20;100.00;101373.44;10404876;28;19936;-77
2023/04/20 13:41:53;;;;;;;;;;;;;;;12.76;100.00;101370.53;10401233;28;19927;-77
2023/04/20 13:46:53;;;;;;;;;;;;;;;13.27;100.00;101369.31;10390665;28;19921;-77
2023/04/20 13:51:53;;;;;;;;;;;;;;;11.18;100.00;101366.25;10370129;28;19967;-77
2023/04/20 13:56:53;;;;;;;;;;;;;;;10.26;100.00;101361.22;10381686;28;19917;-76
2023/04/20 14:01:54;;;;;;;;;;;;;;;11.65;100.00;101361.66;10361408;28;19925;-76
2023/04/20 14:06:54;;;;;;;;;;;;;;;14.29;88.47;101343.81;10384004;28;19952;-77
2023/04/20 14:11:56;;;;;;;;;;;;;;;14.74;79.84;101337.69;10353662;28;20730;-77
2023/04/20 14:16:56;;;;;;;;;;;;;;;12.92;84.05;101344.16;10402648;28;19920;-77
2023/04/20 14:21:56;;;;;;;;;;;;;;;10.95;100.00;101344.94;10402257;28;19940;-77
2023/04/20 14:26:58;;;;;;;;;;;;;;;10.27;100.00;101343.81;10400304;28;19917;-77
2023/04/20 14:31:58;;;;;;;;;;;;;;;10.04;100.00;101339.88;10398407;28;19925;-77
2023/04/20 14:36:58;;;;;;;;;;;;;;;10.03;100.00;101339.00;10370708;28;20328;-77
2023/04/20 14:42:00;;;;;;;;;;;;;;;9.83;100.00;101332.59;10375774;28;19925;-76
2023/04/20 14:47:01;;;;;;;;;;;;;;;11.72;100.00;101324.44;10356880;28;19921;-76
2023/04/20 14:52:03;;;;;;;;;;;;;;;13.42;85.45;101313.94;10354997;28;19928;-76
2023/04/20 14:57:03;;;;;;;;;;;;;;;14.78;71.88;101310.63;10392536;28;19929;-76
2023/04/20 15:02:04;;;;;;;;;;;;;;;15.38;67.36;101306.59;10369001;28;19927;-78
2023/04/20 15:07:04;;;;;;;;;;;;;;;14.66;59.34;101317.19;10401224;28;20367;-77
2023/04/20 15:12:05;;;;;;;;;;;;;;;13.26;63.21;101312.34;10381445;28;20372;-77
2023/04/20 15:17:05;;;;;;;;;;;;;;;12.11;74.03;101315.88;10399748;28;19940;-76
2023/04/20 15:22:05;;;;;;;;;;;;;;;11.43;79.34;101304.63;10359693;28;19922;-79
2023/04/20 15:27:06;;;;;;;;;;;;;;;10.79;78.48;101306.56;10355859;28;19937;-77
2023/04/20 15:32:06;;;;;;;;;;;;;;;10.30;79.44;101302.13;10366136;28;20296;-78
2023/04/20 15:37:07;;;;;;;;;;;;;;;10.35;83.06;101299.75;10401424;28;20387;-78
2023/04/20 15:42:07;;;;;;;;;;;;;;;11.39;78.36;101293.06;10381047;28;20016;-78
2023/04/20 15:47:07;;;;;;;;;;;;;;;12.39;82.41;101282.19;10358236;28;19972;-78
2023/04/20 15:52:07;;;;;;;;;;;;;;;12.36;74.87;101284.66;10387014;28;19932;-78
2023/04/20 15:57:08;;;;;;;;;;;;;;;12.18;69.65;101291.75;10328383;28;20278;-78
2023/04/20 16:02:08;;;;;;;;;;;;;;;11.18;74.39;101298.13;10332068;28;19922;-77
2023/04/20 16:07:09;;;;;;;;;;;;;;;10.57;85.15;101294.91;10377414;28;19927;-77
2023/04/20 16:12:09;;;;;;;;;;;;;;;10.41;86.15;101292.28;10405179;28;19921;-77
2023/04/20 16:17:10;;;;;;;;;;;;;;;10.46;90.00;101295.16;10407446;28;19917;-77
2023/04/20 16:22:11;;;;;;;;;;;;;;;10.67;83.20;101293.72;10406442;28;19924;-78
2023/04/20 16:27:11;;;;;;;;;;;;;;;10.80;78.22;101294.38;10407948;28;19921;-77
2023/04/20 16:32:11;;;;;;;;;;;;;;;10.71;77.36;101300.00;10385966;28;19917;-78
2023/04/20 16:37:12;;;;;;;;;;;;;;;10.61;82.48;101303.84;10366092;28;20288;-77
2023/04/20 16:42:12;;;;;;;;;;;;;;;10.55;83.95;101304.41;10379593;28;19934;-78
2023/04/20 16:47:12;;;;;;;;;;;;;;;10.49;75.93;101298.84;10397241;28;24532;-78
2023/04/20 16:52:13;;;;;;;;;;;;;;;10.46;74.24;101296.06;10405991;28;19921;-78
2023/04/20 16:57:13;;;;;;;;;;;;;;;10.33;76.94;101293.53;10406201;28;20360;-77
2023/04/20 17:02:20;;;;;;;;;;;;;;;10.19;81.17;101300.63;10392043;28;20396;-77
2023/04/20 17:07:20;;;;;;;;;;;;;;;10.14;83.28;101303.88;10361862;28;19929;-76
2023/04/20 17:12:20;;;;;;;;;;;;;;;10.14;79.19;101301.28;10363480;28;19925;-76
2023/04/20 17:17:20;;;;;;;;;;;;;;;10.01;82.03;101305.72;10395687;28;19928;-76
2023/04/20 17:22:21;;;;;;;;;;;;;;;9.75;80.31;101306.03;10405297;28;19921;-77
2023/04/20 17:27:21;;;;;;;;;;;;;;;9.48;77.53;101306.22;10367096;28;19921;-77
2023/04/20 17:32:22;;;;;;;;;;;;;;;9.36;78.32;101321.16;10363319;28;20373;-77
2023/04/20 17:37:22;;;;;;;;;;;;;;;9.07;89.90;101308.13;10364098;28;19929;-77
2023/04/20 17:42:22;;;;;;;;;;;;;;;8.97;86.75;101313.59;10357440;28;20381;-77
2023/04/20 17:47:23;;;;;;;;;;;;;;;9.01;84.92;101309.47;10358962;28;19929;-77
2023/04/20 17:52:23;;;;;;;;;;;;;;;9.16;82.29;101320.88;10357623;28;20595;-81
2023/04/20 17:57:24;;;;;;;;;;;;;;;9.17;79.12;101319.13;10370746;28;19926;-77
2023/04/20 18:02:24;;;;;;;;;;;;;;;9.10;78.25;101326.59;10367745;28;20298;-77
2023/04/20 18:07:25;;;;;;;;;;;;;;;8.79;82.64;101324.72;10390634;28;19921;-77
2023/04/20 18:12:25;;;;;;;;;;;;;;;8.66;79.13;101315.22;10368086;28;19921;-76
2023/04/20 18:17:26;;;;;;;;;;;;;;;8.52;81.36;101334.34;10362705;28;19918;-76
2023/04/20 18:22:26;;;;;;;;;;;;;;;8.42;82.08;101338.00;10389768;28;19925;-77
2023/04/20 18:27:26;;;;;;;;;;;;;;;8.06;90.61;101335.75;10384025;28;19917;-77
2023/04/20 18:32:27;;;;;;;;;;;;;;;7.72;100.00;101351.75;10398223;28;20020;-77
2023/04/20 18:37:27;;;;;;;;;;;;;;;7.42;100.00;101348.91;10375044;28;20354;-77
2023/04/20 18:42:27;;;;;;;;;;;;;;;7.00;100.00;101360.75;10370352;28;19975;-77
2023/04/20 18:47:28;;;;;;;;;;;;;;;6.77;100.00;101360.03;10362750;28;19925;-76
2023/04/20 18:52:30;;;;;;;;;;;;;;;6.53;100.00;101354.88;10364112;28;19921;-77
2023/04/20 18:57:31;;;;;;;;;;;;;;;6.33;100.00;101363.84;10376795;28;19958;-76
2023/04/20 19:02:31;;;;;;;;;;;;;;;6.30;100.00;101354.13;10375227;28;19921;-77
2023/04/20 19:07:32;;;;;;;;;;;;;;;6.42;100.00;101369.69;10388908;28;19918;-77
2023/04/20 19:12:37;;;;;;;;;;;;;;;6.62;100.00;101378.03;10319153;28;20354;-77
2023/04/20 19:17:37;;;;;;;;;;;;;;;6.96;100.00;101371.75;10379360;28;19923;-77
2023/04/20 19:22:38;;;;;;;;;;;;;;;7.09;100.00;101370.88;10363150;28;20362;-78
2023/04/20 19:27:38;;;;;;;;;;;;;;;7.31;100.00;101375.91;10361761;28;19928;-77
2023/04/20 19:32:38;;;;;;;;;;;;;;;7.23;100.00;101374.47;10356878;28;19921;-77
2023/04/20 19:37:40;;;;;;;;;;;;;;;7.18;100.00;101381.94;10361993;28;19921;-77
2023/04/20 19:42:41;;;;;;;;;;;;;;;7.10;100.00;101371.00;10378751;28;20428;-77
2023/04/20 19:47:41;;;;;;;;;;;;;;;7.19;100.00;101368.13;10377222;28;19922;-78
2023/04/20 19:52:41;;;;;;;;;;;;;;;7.08;100.00;101366.47;10365709;28;19947;-77
2023/04/20 19:57:42;;;;;;;;;;;;;;;7.09;100.00;101370.88;10382395;28;19942;-77
2023/04/20 20:02:42;;;;;;;;;;;;;;;7.12;100.00;101366.81;10371985;28;20004;-77
2023/04/20 20:07:42;;;;;;;;;;;;;;;7.05;100.00;101377.59;10394518;28;19955;-77
2023/04/20 20:12:43;;;;;;;;;;;;;;;7.05;100.00;101355.06;10406354;28;19984;-77
2023/04/20 20:17:45;;;;;;;;;;;;;;;6.94;100.00;101349.91;10367028;28;19925;-77
2023/04/20 20:22:48;;;;;;;;;;;;;;;6.89;100.00;101358.31;10394264;28;19922;-77
2023/04/20 20:27:48;;;;;;;;;;;;;;;6.90;100.00;101347.09;10366864;28;20012;-77
2023/04/20 20:32:49;;;;;;;;;;;;;;;6.99;100.00;101357.22;10374551;28;19925;-77
2023/04/20 20:37:50;;;;;;;;;;;;;;;6.99;100.00;101352.03;10364876;28;19936;-77
2023/04/20 20:42:50;;;;;;;;;;;;;;;7.08;100.00;101349.19;10387203;28;19921;-77
2023/04/20 20:47:51;;;;;;;;;;;;;;;7.01;100.00;101347.81;10388168;28;20372;-77
2023/04/20 20:52:51;;;;;;;;;;;;;;;6.90;100.00;101346.16;10390957;28;19972;-77
2023/04/20 20:57:51;;;;;;;;;;;;;;;6.93;100.00;101349.00;10364992;28;20016;-77
2023/04/20 21:02:52;;;;;;;;;;;;;;;6.86;100.00;101333.75;10397991;28;20373;-77
2023/04/20 21:07:52;;;;;;;;;;;;;;;6.80;100.00;101362.84;10369938;28;19929;-77
2023/04/20 21:12:52;;;;;;;;;;;;;;;6.80;100.00;101354.13;10372643;28;20611;-77
2023/04/20 21:17:52;;;;;;;;;;;;;;;6.85;100.00;101368.38;10368824;28;19918;-77
2023/04/20 21:22:53;;;;;;;;;;;;;;;6.82;100.00;101371.66;10354984;28;19921;-77
2023/04/20 21:27:53;;;;;;;;;;;;;;;6.75;100.00;101374.63;10400927;28;19921;-77
2023/04/20 21:32:53;;;;;;;;;;;;;;;6.61;100.00;101369.34;10401401;28;19921;-78
2023/04/20 21:37:54;;;;;;;;;;;;;;;6.49;100.00;101372.75;10375777;28;20005;-77
2023/04/20 21:42:54;;;;;;;;;;;;;;;6.23;100.00;101374.34;10382787;28;19925;-77
2023/04/20 21:47:54;;;;;;;;;;;;;;;5.98;100.00;101383.81;10381340;28;19921;-77
2023/04/20 21:52:55;;;;;;;;;;;;;;;5.84;100.00;101387.06;10394168;28;20280;-77
2023/04/20 21:57:55;;;;;;;;;;;;;;;5.72;100.00;101400.03;10393762;28;19928;-77
2023/04/20 22:02:55;;;;;;;;;;;;;;;5.69;100.00;101379.94;10397446;28;19921;-77
2023/04/20 22:07:58;;;;;;;;;;;;;;;5.68;100.00;101388.53;10388274;28;19928;-77
2023/04/20 22:12:58;;;;;;;;;;;;;;;5.67;100.00;101375.41;10399703;28;20280;-77
2023/04/20 22:17:59;;;;;;;;;;;;;;;5.63;100.00;101365.56;10362392;28;19922;-76
2023/04/20 22:22:59;;;;;;;;;;;;;;;5.59;100.00;101367.94;10386610;28;19921;-76
2023/04/20 22:28:00;;;;;;;;;;;;;;;5.60;100.00;101363.66;10374847;28;20270;-76
2023/04/20 22:33:00;;;;;;;;;;;;;;;5.59;100.00;101367.03;10399568;28;19921;-77
2023/04/20 22:38:01;;;;;;;;;;;;;;;5.58;100.00;101365.25;10374226;28;19921;-77
2023/04/20 22:43:01;;;;;;;;;;;;;;;5.59;100.00;101352.34;10381527;28;19928;-77
2023/04/20 22:48:02;;;;;;;;;;;;;;;5.54;100.00;101332.94;10375250;28;19976;-76
2023/04/20 22:53:03;;;;;;;;;;;;;;;5.50;100.00;101333.47;10393578;28;20044;-76
2023/04/20 22:58:03;;;;;;;;;;;;;;;5.45;100.00;101327.03;10374549;28;19948;-77
2023/04/20 23:03:03;;;;;;;;;;;;;;;5.46;100.00;101328.84;10370989;28;20362;-77
2023/04/20 23:08:04;;;;;;;;;;;;;;;5.46;100.00;101308.06;10371696;28;20351;-77
2023/04/20 23:13:04;;;;;;;;;;;;;;;5.52;100.00;101312.84;10367015;28;19920;-77
2023/04/20 23:18:04;;;;;;;;;;;;;;;5.46;100.00;101314.97;10358742;28;19928;-77
2023/04/20 23:23:06;;;;;;;;;;;;;;;5.52;100.00;101324.13;10363865;28;19968;-77
2023/04/20 23:28:06;;;;;;;;;;;;;;;5.56;100.00;101310.56;10374413;28;20345;-77
2023/04/20 23:33:07;;;;;;;;;;;;;;;5.53;100.00;101305.16;10368970;28;20008;-77
2023/04/20 23:38:07;;;;;;;;;;;;;;;5.56;100.00;101296.72;10373302;28;20009;-77
2023/04/20 23:43:07;;;;;;;;;;;;;;;5.48;100.00;101295.22;10385223;28;19943;-77
2023/04/20 23:48:07;;;;;;;;;;;;;;;5.48;100.00;101275.34;10377645;28;19920;-77
2023/04/20 23:53:09;;;;;;;;;;;;;;;5.50;100.00;101267.69;10378903;28;19928;-77
2023/04/20 23:58:09;;;;;;;;;;;;;;;5.52;100.00;101260.91;10373313;28;19924;-77
